»·PEaware :: CGMWT KSEA-KPDX

CGMWT :: KSEA-KPDX

FLIGHT INFORMATION

Flight Status: Arrived
Operator: Unknown
More flights by this operator :: More flights under this callsign
Pilot: Konrad W. (32064)
Aircraft: Diamond DA-40
(DA40)
More flights by this aircraft type
Origin: KSEA Seattle-Tacoma Intl
United States
Destination: KPDX Portland Intl
United States
More flights between these airports :: More routes between these airports
Route: +
File this flight plan on PilotEdge
Remarks:
Altitude:
(Current/Filed)
0ft
Speed:
(Current/Filed)
0kts
Departed: 23-Oct-20 11:11 AM
Arrived: 23-Oct-20 12:22 PM
Distance/Time
Traveled:
112nm/1:11
Distance/Time
To Go:
Arrived

Flight Plot

Page will automatically refresh every two minutes.

Flight plan parsing failed; only flown route is shown


Map Options




Map Legend


Flown Route
Filed Route
Departure Airport
Arrival Airport
Navaid (VOR, NDB)
Fix

Horizontal Profiles

Position Reports

Time Latitude Longitude Heading Altitude Ground
Speed
23-Oct-20 11:02 47.452105 -122.303408 90 395ft 0kts
23-Oct-20 11:03 47.452105 -122.303408 90 395ft 0kts
23-Oct-20 11:04 47.452105 -122.303408 90 395ft 0kts
23-Oct-20 11:05 47.452105 -122.303408 90 395ft 0kts
23-Oct-20 11:06 47.452106 -122.303408 90 395ft 0kts
23-Oct-20 11:07 47.454453 -122.305036 0 402ft 32kts
23-Oct-20 11:08 47.463603 -122.306283 308 427ft 13kts
23-Oct-20 11:09 47.463690 -122.306448 302 428ft 0kts
23-Oct-20 11:10 47.457518 -122.307817 180 410ft 76kts
23-Oct-20 11:11 47.432044 -122.308434 186 819ft 93kts
23-Oct-20 11:12 47.422114 -122.340878 262 1255ft 97kts
23-Oct-20 11:13 47.418870 -122.381057 262 1753ft 102kts
23-Oct-20 11:14 47.415267 -122.424833 262 2253ft 111kts
23-Oct-20 11:15 47.401221 -122.462479 210 2434ft 116kts
23-Oct-20 11:16 47.369453 -122.464434 172 2434ft 120kts
23-Oct-20 11:17 47.336413 -122.456827 172 2436ft 121kts
23-Oct-20 11:18 47.305147 -122.443407 140 2437ft 122kts
23-Oct-20 11:19 47.275130 -122.421121 157 2434ft 121kts
23-Oct-20 11:20 47.245215 -122.401667 157 2586ft 116kts
23-Oct-20 11:21 47.215434 -122.382248 155 2698ft 117kts
23-Oct-20 11:22 47.189411 -122.353828 143 2806ft 118kts
23-Oct-20 11:23 47.160292 -122.330011 177 2702ft 123kts
23-Oct-20 11:24 47.127956 -122.327852 178 2950ft 111kts
23-Oct-20 11:25 47.098790 -122.331577 194 3402ft 100kts
23-Oct-20 11:26 47.074447 -122.353206 214 3812ft 115kts
23-Oct-20 11:27 47.046836 -122.380981 214 4102ft 122kts
23-Oct-20 11:28 47.018623 -122.409242 214 4398ft 123kts
23-Oct-20 11:29 46.989168 -122.438632 214 4433ft 131kts
23-Oct-20 11:30 46.958665 -122.468892 214 4435ft 132kts
23-Oct-20 11:31 46.928962 -122.499019 224 4434ft 127kts
23-Oct-20 11:32 46.906753 -122.536993 232 4436ft 119kts
23-Oct-20 11:33 46.888314 -122.576411 235 4435ft 116kts
23-Oct-20 11:34 46.870190 -122.615245 235 4435ft 115kts
23-Oct-20 11:35 46.852043 -122.653999 235 4435ft 115kts
23-Oct-20 11:36 46.833956 -122.692587 235 4438ft 114kts
23-Oct-20 11:37 46.815728 -122.731369 235 4435ft 116kts
23-Oct-20 11:38 46.797452 -122.770154 235 4434ft 116kts
23-Oct-20 11:39 46.779208 -122.808848 235 4436ft 115kts
23-Oct-20 11:40 46.760528 -122.848351 235 4338ft 118kts
23-Oct-20 11:41 46.742087 -122.887314 235 4335ft 116kts
23-Oct-20 11:42 46.723830 -122.925904 235 4332ft 115kts
23-Oct-20 11:43 46.705627 -122.964411 235 4333ft 115kts
23-Oct-20 11:44 46.684742 -122.997393 183 4339ft 114kts
23-Oct-20 11:45 46.655885 -122.981084 168 4332ft 116kts
23-Oct-20 11:46 46.623823 -122.975404 175 4334ft 116kts
23-Oct-20 11:47 46.591570 -122.971110 175 4334ft 116kts
23-Oct-20 11:48 46.559306 -122.966790 175 4332ft 116kts
23-Oct-20 11:49 46.527107 -122.962452 175 4334ft 116kts
23-Oct-20 11:51 46.494834 -122.958103 175 4332ft 116kts
23-Oct-20 11:52 46.462537 -122.953757 175 4334ft 116kts
23-Oct-20 11:53 46.430204 -122.949403 175 4333ft 116kts
23-Oct-20 11:54 46.397883 -122.945061 175 4333ft 116kts
23-Oct-20 11:55 46.365575 -122.940729 175 4330ft 116kts
23-Oct-20 11:56 46.332375 -122.936276 175 4110ft 124kts
23-Oct-20 11:57 46.297907 -122.931656 175 3813ft 124kts
23-Oct-20 11:58 46.263397 -122.927036 175 3516ft 124kts
23-Oct-20 11:59 46.229355 -122.922492 175 3337ft 118kts
23-Oct-20 12:00 46.197456 -122.918232 175 3332ft 114kts
23-Oct-20 12:01 46.165998 -122.914039 175 3333ft 113kts
23-Oct-20 12:02 46.136567 -122.897767 152 3334ft 114kts
23-Oct-20 12:03 46.108495 -122.875475 152 3336ft 116kts
23-Oct-20 12:04 46.080016 -122.852833 152 3332ft 116kts
23-Oct-20 12:05 46.050338 -122.836194 170 3337ft 114kts
23-Oct-20 12:05 46.023993 -122.829568 171 3330ft 114kts
23-Oct-20 12:07 45.987063 -122.820200 171 3332ft 118kts
23-Oct-20 12:08 45.954652 -122.811983 170 3332ft 118kts
23-Oct-20 12:08 45.927698 -122.805109 171 3333ft 118kts
23-Oct-20 12:10 45.889894 -122.795453 170 3333ft 118kts
23-Oct-20 12:10 45.863123 -122.788570 170 3350ft 116kts
23-Oct-20 12:11 45.831107 -122.780303 170 3370ft 117kts
23-Oct-20 12:12 45.798839 -122.771982 170 3371ft 118kts
23-Oct-20 12:13 45.766613 -122.763691 170 3370ft 118kts
23-Oct-20 12:14 45.734366 -122.755365 170 3370ft 118kts
23-Oct-20 12:15 45.699858 -122.746501 170 2886ft 131kts
23-Oct-20 12:16 45.667351 -122.730004 147 2358ft 113kts
23-Oct-20 12:17 45.644106 -122.702615 139 1839ft 106kts
23-Oct-20 12:18 45.625657 -122.672604 125 1340ft 98kts
23-Oct-20 12:19 45.612648 -122.641462 121 841ft 90kts
23-Oct-20 12:20 45.600635 -122.610280 119 271ft 86kts
23-Oct-20 12:21 45.592108 -122.590880 266 38ft 7kts
23-Oct-20 12:22 45.592102 -122.591163 272 38ft 0kts
23-Oct-20 12:23 45.589766 -122.588235 123 33ft 28kts
23-Oct-20 12:24 45.587859 -122.585368 218 30ft 4kts

Navigation Log

Ident Type
Flight plan parsing failed, navigation log unavailable